sensor_id;sensor_type;location;lat;lon;timestamp;temperature;humidity
16263;DHT22;8239;48.594;8.598;2022-09-29T00:01:54;3.90;99.90
16263;DHT22;8239;48.594;8.598;2022-09-29T00:04:21;3.90;99.90
16263;DHT22;8239;48.594;8.598;2022-09-29T00:06:49;3.90;99.90
16263;DHT22;8239;48.594;8.598;2022-09-29T00:09:16;4.00;99.90
16263;DHT22;8239;48.594;8.598;2022-09-29T00:11:43;4.00;99.90
16263;DHT22;8239;48.594;8.598;2022-09-29T00:14:10;4.00;99.90
16263;DHT22;8239;48.594;8.598;2022-09-29T00:16:38;4.00;99.90
16263;DHT22;8239;48.594;8.598;2022-09-29T00:19:05;4.10;99.90
16263;DHT22;8239;48.594;8.598;2022-09-29T00:21:32;4.10;99.90
16263;DHT22;8239;48.594;8.598;2022-09-29T00:24:00;4.10;99.90
16263;DHT22;8239;48.594;8.598;2022-09-29T00:26:30;4.20;99.90
16263;DHT22;8239;48.594;8.598;2022-09-29T00:28:58;4.10;99.90
16263;DHT22;8239;48.594;8.598;2022-09-29T00:31:27;4.20;99.90
16263;DHT22;8239;48.594;8.598;2022-09-29T00:34:00;4.10;99.90
16263;DHT22;8239;48.594;8.598;2022-09-29T00:36:41;4.10;99.90
16263;DHT22;8239;48.594;8.598;2022-09-29T00:39:22;4.10;99.90
16263;DHT22;8239;48.594;8.598;2022-09-29T00:41:50;4.10;99.90
16263;DHT22;8239;48.594;8.598;2022-09-29T00:44:54;4.10;99.90
16263;DHT22;8239;48.594;8.598;2022-09-29T00:47:26;4.10;99.90
16263;DHT22;8239;48.594;8.598;2022-09-29T00:49:58;4.10;99.90
16263;DHT22;8239;48.594;8.598;2022-09-29T00:52:32;4.00;99.90
16263;DHT22;8239;48.594;8.598;2022-09-29T00:55:12;4.00;99.90
16263;DHT22;8239;48.594;8.598;2022-09-29T00:57:44;4.00;99.90
16263;DHT22;8239;48.594;8.598;2022-09-29T01:00:15;4.00;99.90
16263;DHT22;8239;48.594;8.598;2022-09-29T01:02:46;4.00;99.90
16263;DHT22;8239;48.594;8.598;2022-09-29T01:05:23;4.00;99.90
16263;DHT22;8239;48.594;8.598;2022-09-29T01:08:01;4.10;99.90
16263;DHT22;8239;48.594;8.598;2022-09-29T01:10:36;4.10;99.90
16263;DHT22;8239;48.594;8.598;2022-09-29T01:13:10;4.10;99.90
16263;DHT22;8239;48.594;8.598;2022-09-29T01:15:38;4.10;99.90
16263;DHT22;8239;48.594;8.598;2022-09-29T01:18:05;4.10;99.90
16263;DHT22;8239;48.594;8.598;2022-09-29T01:20:38;4.20;99.90
16263;DHT22;8239;48.594;8.598;2022-09-29T01:23:26;4.10;99.90
16263;DHT22;8239;48.594;8.598;2022-09-29T01:26:14;4.20;99.90
16263;DHT22;8239;48.594;8.598;2022-09-29T01:32:10;4.20;99.90
16263;DHT22;8239;48.594;8.598;2022-09-29T01:34:53;4.20;99.90
16263;DHT22;8239;48.594;8.598;2022-09-29T01:37:57;4.30;99.90
16263;DHT22;8239;48.594;8.598;2022-09-29T01:40:40;4.30;99.90
16263;DHT22;8239;48.594;8.598;2022-09-29T01:43:28;4.40;99.90
16263;DHT22;8239;48.594;8.598;2022-09-29T01:46:12;4.40;99.90
16263;DHT22;8239;48.594;8.598;2022-09-29T01:51:39;4.50;99.90
16263;DHT22;8239;48.594;8.598;2022-09-29T01:54:12;4.50;99.90
16263;DHT22;8239;48.594;8.598;2022-09-29T01:56:45;4.50;99.90
16263;DHT22;8239;48.594;8.598;2022-09-29T01:59:18;4.50;99.90
16263;DHT22;8239;48.594;8.598;2022-09-29T02:01:50;4.50;99.90
16263;DHT22;8239;48.594;8.598;2022-09-29T02:04:20;4.50;99.90
16263;DHT22;8239;48.594;8.598;2022-09-29T02:06:55;4.50;99.90
16263;DHT22;8239;48.594;8.598;2022-09-29T02:09:26;4.40;99.90
16263;DHT22;8239;48.594;8.598;2022-09-29T02:11:56;4.50;99.90
16263;DHT22;8239;48.594;8.598;2022-09-29T02:14:25;4.50;99.90
16263;DHT22;8239;48.594;8.598;2022-09-29T02:16:57;4.50;99.90
16263;DHT22;8239;48.594;8.598;2022-09-29T02:19:28;4.50;99.90
16263;DHT22;8239;48.594;8.598;2022-09-29T02:21:58;4.50;99.90
16263;DHT22;8239;48.594;8.598;2022-09-29T02:24:25;4.50;99.90
16263;DHT22;8239;48.594;8.598;2022-09-29T02:26:53;4.50;99.90
16263;DHT22;8239;48.594;8.598;2022-09-29T02:29:20;4.50;99.90
16263;DHT22;8239;48.594;8.598;2022-09-29T02:31:48;4.50;99.90
16263;DHT22;8239;48.594;8.598;2022-09-29T02:34:17;4.50;99.90
16263;DHT22;8239;48.594;8.598;2022-09-29T02:36:53;4.40;99.90
16263;DHT22;8239;48.594;8.598;2022-09-29T02:39:35;4.40;99.90
16263;DHT22;8239;48.594;8.598;2022-09-29T02:42:16;4.30;99.90
16263;DHT22;8239;48.594;8.598;2022-09-29T02:45:01;4.30;99.90
16263;DHT22;8239;48.594;8.598;2022-09-29T02:47:52;4.20;99.90
16263;DHT22;8239;48.594;8.598;2022-09-29T02:50:34;4.10;99.90
16263;DHT22;8239;48.594;8.598;2022-09-29T02:53:10;4.00;99.90
16263;DHT22;8239;48.594;8.598;2022-09-29T02:55:48;3.90;99.90
16263;DHT22;8239;48.594;8.598;2022-09-29T02:58:27;3.80;99.90
16263;DHT22;8239;48.594;8.598;2022-09-29T03:00:57;3.80;99.90
16263;DHT22;8239;48.594;8.598;2022-09-29T03:03:25;3.70;99.90
16263;DHT22;8239;48.594;8.598;2022-09-29T03:05:52;3.70;99.90
16263;DHT22;8239;48.594;8.598;2022-09-29T03:08:20;3.60;99.90
16263;DHT22;8239;48.594;8.598;2022-09-29T03:10:48;3.60;99.90
16263;DHT22;8239;48.594;8.598;2022-09-29T03:13:15;3.50;99.90
16263;DHT22;8239;48.594;8.598;2022-09-29T03:15:42;3.40;99.90
16263;DHT22;8239;48.594;8.598;2022-09-29T03:18:09;3.30;99.90
16263;DHT22;8239;48.594;8.598;2022-09-29T03:20:36;3.30;99.90
16263;DHT22;8239;48.594;8.598;2022-09-29T03:23:03;3.20;99.90
16263;DHT22;8239;48.594;8.598;2022-09-29T03:25:30;3.20;99.90
16263;DHT22;8239;48.594;8.598;2022-09-29T03:27:59;3.20;99.90
16263;DHT22;8239;48.594;8.598;2022-09-29T03:30:26;3.20;99.90
16263;DHT22;8239;48.594;8.598;2022-09-29T03:32:53;3.20;99.90
16263;DHT22;8239;48.594;8.598;2022-09-29T03:35:20;3.20;99.90
16263;DHT22;8239;48.594;8.598;2022-09-29T03:37:47;3.20;99.90
16263;DHT22;8239;48.594;8.598;2022-09-29T03:40:15;3.20;99.90
16263;DHT22;8239;48.594;8.598;2022-09-29T03:42:44;3.20;99.90
16263;DHT22;8239;48.594;8.598;2022-09-29T03:45:13;3.20;99.90
16263;DHT22;8239;48.594;8.598;2022-09-29T03:47:40;3.20;99.90
16263;DHT22;8239;48.594;8.598;2022-09-29T03:50:10;3.20;99.90
16263;DHT22;8239;48.594;8.598;2022-09-29T03:52:37;3.20;99.90
16263;DHT22;8239;48.594;8.598;2022-09-29T03:55:05;3.20;99.90
16263;DHT22;8239;48.594;8.598;2022-09-29T03:57:32;3.10;99.90
16263;DHT22;8239;48.594;8.598;2022-09-29T03:59:59;3.10;99.90
16263;DHT22;8239;48.594;8.598;2022-09-29T04:02:28;3.10;99.90
16263;DHT22;8239;48.594;8.598;2022-09-29T04:04:55;3.00;99.90
16263;DHT22;8239;48.594;8.598;2022-09-29T04:07:22;3.00;99.90
16263;DHT22;8239;48.594;8.598;2022-09-29T04:09:49;3.00;99.90
16263;DHT22;8239;48.594;8.598;2022-09-29T04:12:16;3.00;99.90
16263;DHT22;8239;48.594;8.598;2022-09-29T04:14:43;3.00;99.90
16263;DHT22;8239;48.594;8.598;2022-09-29T04:17:10;3.10;99.90
16263;DHT22;8239;48.594;8.598;2022-09-29T04:19:38;3.00;99.90
16263;DHT22;8239;48.594;8.598;2022-09-29T04:22:06;3.10;99.90
16263;DHT22;8239;48.594;8.598;2022-09-29T04:24:34;3.10;99.90
16263;DHT22;8239;48.594;8.598;2022-09-29T04:27:01;3.10;99.90
16263;DHT22;8239;48.594;8.598;2022-09-29T04:29:28;3.10;99.90
16263;DHT22;8239;48.594;8.598;2022-09-29T04:31:55;3.10;99.90
16263;DHT22;8239;48.594;8.598;2022-09-29T04:34:22;3.10;99.90
16263;DHT22;8239;48.594;8.598;2022-09-29T04:36:50;3.10;99.90
16263;DHT22;8239;48.594;8.598;2022-09-29T04:39:17;3.10;99.90
16263;DHT22;8239;48.594;8.598;2022-09-29T04:41:45;3.10;99.90
16263;DHT22;8239;48.594;8.598;2022-09-29T04:44:12;3.10;99.90
16263;DHT22;8239;48.594;8.598;2022-09-29T04:46:39;3.10;99.90
16263;DHT22;8239;48.594;8.598;2022-09-29T04:49:07;3.10;99.90
16263;DHT22;8239;48.594;8.598;2022-09-29T04:51:34;3.00;99.90
16263;DHT22;8239;48.594;8.598;2022-09-29T04:54:03;3.00;99.90
16263;DHT22;8239;48.594;8.598;2022-09-29T04:56:30;3.00;99.90
16263;DHT22;8239;48.594;8.598;2022-09-29T04:58:57;3.00;99.90
16263;DHT22;8239;48.594;8.598;2022-09-29T05:01:25;3.00;99.90
16263;DHT22;8239;48.594;8.598;2022-09-29T05:03:52;2.90;99.90
16263;DHT22;8239;48.594;8.598;2022-09-29T05:06:19;2.90;99.90
16263;DHT22;8239;48.594;8.598;2022-09-29T05:08:46;2.90;99.90
16263;DHT22;8239;48.594;8.598;2022-09-29T05:11:14;2.90;99.90
16263;DHT22;8239;48.594;8.598;2022-09-29T05:13:42;2.90;99.90
16263;DHT22;8239;48.594;8.598;2022-09-29T05:16:09;2.80;99.90
16263;DHT22;8239;48.594;8.598;2022-09-29T05:18:36;2.80;99.90
16263;DHT22;8239;48.594;8.598;2022-09-29T05:21:04;2.80;99.90
16263;DHT22;8239;48.594;8.598;2022-09-29T05:23:32;2.80;99.90
16263;DHT22;8239;48.594;8.598;2022-09-29T05:26:03;2.80;99.90
16263;DHT22;8239;48.594;8.598;2022-09-29T05:28:33;2.70;99.90
16263;DHT22;8239;48.594;8.598;2022-09-29T05:31:01;2.70;99.90
16263;DHT22;8239;48.594;8.598;2022-09-29T05:33:28;2.70;99.90
16263;DHT22;8239;48.594;8.598;2022-09-29T05:35:56;2.70;99.90
16263;DHT22;8239;48.594;8.598;2022-09-29T05:38:23;2.70;99.90
16263;DHT22;8239;48.594;8.598;2022-09-29T05:40:51;2.70;99.90
16263;DHT22;8239;48.594;8.598;2022-09-29T05:43:19;2.70;99.90
16263;DHT22;8239;48.594;8.598;2022-09-29T05:45:47;2.70;99.90
16263;DHT22;8239;48.594;8.598;2022-09-29T05:48:14;2.80;99.90
16263;DHT22;8239;48.594;8.598;2022-09-29T05:50:42;2.80;99.90
16263;DHT22;8239;48.594;8.598;2022-09-29T05:53:10;2.80;99.90
16263;DHT22;8239;48.594;8.598;2022-09-29T05:55:37;2.90;99.90
16263;DHT22;8239;48.594;8.598;2022-09-29T05:58:05;3.00;99.90
16263;DHT22;8239;48.594;8.598;2022-09-29T06:00:32;3.00;99.90
16263;DHT22;8239;48.594;8.598;2022-09-29T06:03:01;3.10;99.90
16263;DHT22;8239;48.594;8.598;2022-09-29T06:05:28;3.30;99.90
16263;DHT22;8239;48.594;8.598;2022-09-29T06:07:55;3.30;99.90
16263;DHT22;8239;48.594;8.598;2022-09-29T06:10:23;3.40;99.90
16263;DHT22;8239;48.594;8.598;2022-09-29T06:12:50;3.50;99.90
16263;DHT22;8239;48.594;8.598;2022-09-29T06:15:17;3.60;99.90
16263;DHT22;8239;48.594;8.598;2022-09-29T06:17:45;3.60;99.90
16263;DHT22;8239;48.594;8.598;2022-09-29T06:20:16;3.70;99.90
16263;DHT22;8239;48.594;8.598;2022-09-29T06:22:43;3.70;99.90
16263;DHT22;8239;48.594;8.598;2022-09-29T06:25:10;3.80;99.90
16263;DHT22;8239;48.594;8.598;2022-09-29T06:27:37;3.80;99.90
16263;DHT22;8239;48.594;8.598;2022-09-29T06:30:06;3.80;99.90
16263;DHT22;8239;48.594;8.598;2022-09-29T06:32:33;3.90;99.90
16263;DHT22;8239;48.594;8.598;2022-09-29T06:35:00;4.00;99.90
16263;DHT22;8239;48.594;8.598;2022-09-29T06:37:46;4.10;99.90
16263;DHT22;8239;48.594;8.598;2022-09-29T06:40:13;4.20;99.90
16263;DHT22;8239;48.594;8.598;2022-09-29T06:42:40;4.30;99.90
16263;DHT22;8239;48.594;8.598;2022-09-29T06:45:09;4.40;99.90
16263;DHT22;8239;48.594;8.598;2022-09-29T06:47:37;4.60;99.90
16263;DHT22;8239;48.594;8.598;2022-09-29T06:50:05;4.70;99.90
16263;DHT22;8239;48.594;8.598;2022-09-29T06:52:32;4.80;99.90
16263;DHT22;8239;48.594;8.598;2022-09-29T06:55:00;4.90;99.90
16263;DHT22;8239;48.594;8.598;2022-09-29T06:57:27;5.00;99.90
16263;DHT22;8239;48.594;8.598;2022-09-29T06:59:55;5.20;99.90
16263;DHT22;8239;48.594;8.598;2022-09-29T07:02:22;5.30;99.90
16263;DHT22;8239;48.594;8.598;2022-09-29T07:04:49;5.40;99.90
16263;DHT22;8239;48.594;8.598;2022-09-29T07:07:16;5.40;99.90
16263;DHT22;8239;48.594;8.598;2022-09-29T07:09:43;5.50;99.90
16263;DHT22;8239;48.594;8.598;2022-09-29T07:12:11;5.50;99.90
16263;DHT22;8239;48.594;8.598;2022-09-29T07:14:39;5.50;99.90
16263;DHT22;8239;48.594;8.598;2022-09-29T07:17:06;5.60;99.90
16263;DHT22;8239;48.594;8.598;2022-09-29T07:19:34;5.60;99.90
16263;DHT22;8239;48.594;8.598;2022-09-29T07:22:01;5.70;99.90
16263;DHT22;8239;48.594;8.598;2022-09-29T07:24:29;5.80;99.90
16263;DHT22;8239;48.594;8.598;2022-09-29T07:26:56;5.90;99.90
16263;DHT22;8239;48.594;8.598;2022-09-29T07:29:24;6.10;99.90
16263;DHT22;8239;48.594;8.598;2022-09-29T07:31:51;6.20;99.90
16263;DHT22;8239;48.594;8.598;2022-09-29T07:34:20;6.30;99.90
16263;DHT22;8239;48.594;8.598;2022-09-29T07:36:47;6.50;99.90
16263;DHT22;8239;48.594;8.598;2022-09-29T07:39:14;6.60;99.90
16263;DHT22;8239;48.594;8.598;2022-09-29T07:41:42;6.70;99.90
16263;DHT22;8239;48.594;8.598;2022-09-29T07:44:09;6.70;99.90
16263;DHT22;8239;48.594;8.598;2022-09-29T07:46:37;6.80;99.90
16263;DHT22;8239;48.594;8.598;2022-09-29T07:49:05;6.90;99.90
16263;DHT22;8239;48.594;8.598;2022-09-29T07:51:32;6.90;99.90
16263;DHT22;8239;48.594;8.598;2022-09-29T07:54:00;7.00;99.90
16263;DHT22;8239;48.594;8.598;2022-09-29T07:56:28;7.00;99.90
16263;DHT22;8239;48.594;8.598;2022-09-29T07:58:55;7.10;99.90
16263;DHT22;8239;48.594;8.598;2022-09-29T08:01:25;7.20;99.90
16263;DHT22;8239;48.594;8.598;2022-09-29T08:03:54;7.30;99.90
16263;DHT22;8239;48.594;8.598;2022-09-29T08:06:25;7.50;99.90
16263;DHT22;8239;48.594;8.598;2022-09-29T08:08:53;7.60;99.90
16263;DHT22;8239;48.594;8.598;2022-09-29T08:11:20;7.80;99.90
16263;DHT22;8239;48.594;8.598;2022-09-29T08:13:50;8.00;99.90
16263;DHT22;8239;48.594;8.598;2022-09-29T08:16:18;8.30;99.90
16263;DHT22;8239;48.594;8.598;2022-09-29T08:18:45;8.60;99.90
16263;DHT22;8239;48.594;8.598;2022-09-29T08:21:14;8.90;99.90
16263;DHT22;8239;48.594;8.598;2022-09-29T08:23:42;9.40;99.90
16263;DHT22;8239;48.594;8.598;2022-09-29T08:26:10;10.00;99.90
16263;DHT22;8239;48.594;8.598;2022-09-29T08:28:39;10.60;99.90
16263;DHT22;8239;48.594;8.598;2022-09-29T08:31:08;11.30;99.90
16263;DHT22;8239;48.594;8.598;2022-09-29T08:33:36;12.00;99.90
16263;DHT22;8239;48.594;8.598;2022-09-29T08:36:04;12.50;99.90
16263;DHT22;8239;48.594;8.598;2022-09-29T08:38:41;12.90;99.90
16263;DHT22;8239;48.594;8.598;2022-09-29T08:41:21;13.10;99.90
16263;DHT22;8239;48.594;8.598;2022-09-29T08:43:53;13.50;99.90
16263;DHT22;8239;48.594;8.598;2022-09-29T08:46:25;13.80;99.90
16263;DHT22;8239;48.594;8.598;2022-09-29T08:48:53;14.20;99.90
16263;DHT22;8239;48.594;8.598;2022-09-29T08:51:27;14.50;99.90
16263;DHT22;8239;48.594;8.598;2022-09-29T08:53:59;14.90;99.90
16263;DHT22;8239;48.594;8.598;2022-09-29T08:56:29;15.60;99.90
16263;DHT22;8239;48.594;8.598;2022-09-29T08:58:59;16.60;99.20
16263;DHT22;8239;48.594;8.598;2022-09-29T09:01:31;17.60;96.10
16263;DHT22;8239;48.594;8.598;2022-09-29T09:04:35;18.60;93.10
16263;DHT22;8239;48.594;8.598;2022-09-29T09:07:09;19.90;86.40
16263;DHT22;8239;48.594;8.598;2022-09-29T09:09:50;20.30;75.90
16263;DHT22;8239;48.594;8.598;2022-09-29T09:12:31;20.20;76.00
16263;DHT22;8239;48.594;8.598;2022-09-29T09:15:33;20.20;76.90
16263;DHT22;8239;48.594;8.598;2022-09-29T09:18:21;19.90;72.40
16263;DHT22;8239;48.594;8.598;2022-09-29T09:20:54;19.00;72.40
16263;DHT22;8239;48.594;8.598;2022-09-29T09:23:28;18.00;73.50
16263;DHT22;8239;48.594;8.598;2022-09-29T09:26:02;17.00;76.00
16263;DHT22;8239;48.594;8.598;2022-09-29T09:28:32;16.30;79.50
16263;DHT22;8239;48.594;8.598;2022-09-29T09:31:04;15.80;81.60
16263;DHT22;8239;48.594;8.598;2022-09-29T09:33:36;15.40;83.40
16263;DHT22;8239;48.594;8.598;2022-09-29T09:36:08;15.20;85.60
16263;DHT22;8239;48.594;8.598;2022-09-29T09:38:46;15.00;86.70
16263;DHT22;8239;48.594;8.598;2022-09-29T09:41:19;14.90;86.90
16263;DHT22;8239;48.594;8.598;2022-09-29T09:43:51;14.80;87.10
16263;DHT22;8239;48.594;8.598;2022-09-29T09:46:25;14.80;88.20
16263;DHT22;8239;48.594;8.598;2022-09-29T09:48:59;14.70;86.30
16263;DHT22;8239;48.594;8.598;2022-09-29T09:51:42;14.60;85.00
16263;DHT22;8239;48.594;8.598;2022-09-29T09:54:15;14.60;85.60
16263;DHT22;8239;48.594;8.598;2022-09-29T10:00:03;14.10;84.30
16263;DHT22;8239;48.594;8.598;2022-09-29T10:02:32;13.90;84.40
16263;DHT22;8239;48.594;8.598;2022-09-29T10:05:00;13.80;85.00
16263;DHT22;8239;48.594;8.598;2022-09-29T10:07:28;13.60;87.10
16263;DHT22;8239;48.594;8.598;2022-09-29T10:09:57;13.60;88.30
16263;DHT22;8239;48.594;8.598;2022-09-29T10:12:29;13.60;88.10
16263;DHT22;8239;48.594;8.598;2022-09-29T10:15:00;13.60;87.70
16263;DHT22;8239;48.594;8.598;2022-09-29T10:17:32;13.70;88.20
16263;DHT22;8239;48.594;8.598;2022-09-29T10:20:04;13.70;88.30
16263;DHT22;8239;48.594;8.598;2022-09-29T10:22:32;13.60;88.60
16263;DHT22;8239;48.594;8.598;2022-09-29T10:25:07;13.60;90.00
16263;DHT22;8239;48.594;8.598;2022-09-29T10:27:39;13.70;90.10
16263;DHT22;8239;48.594;8.598;2022-09-29T10:30:17;13.80;90.60
16263;DHT22;8239;48.594;8.598;2022-09-29T10:32:45;14.10;90.30
16263;DHT22;8239;48.594;8.598;2022-09-29T10:35:18;14.40;89.30
16263;DHT22;8239;48.594;8.598;2022-09-29T10:37:57;15.00;89.80
16263;DHT22;8239;48.594;8.598;2022-09-29T10:40:26;15.50;87.30
16263;DHT22;8239;48.594;8.598;2022-09-29T10:42:55;15.80;84.60
16263;DHT22;8239;48.594;8.598;2022-09-29T10:45:24;16.20;81.20
16263;DHT22;8239;48.594;8.598;2022-09-29T10:48:07;16.40;78.00
16263;DHT22;8239;48.594;8.598;2022-09-29T10:50:37;16.70;79.20
16263;DHT22;8239;48.594;8.598;2022-09-29T10:53:21;16.60;74.60
16263;DHT22;8239;48.594;8.598;2022-09-29T10:55:52;16.50;72.40
16263;DHT22;8239;48.594;8.598;2022-09-29T10:58:24;16.60;73.60
16263;DHT22;8239;48.594;8.598;2022-09-29T11:01:06;16.80;73.50
16263;DHT22;8239;48.594;8.598;2022-09-29T11:03:38;17.00;72.60
16263;DHT22;8239;48.594;8.598;2022-09-29T11:06:08;17.20;70.10
16263;DHT22;8239;48.594;8.598;2022-09-29T11:08:58;17.50;70.80
16263;DHT22;8239;48.594;8.598;2022-09-29T11:11:28;18.00;69.60
16263;DHT22;8239;48.594;8.598;2022-09-29T11:13:57;18.10;65.10
16263;DHT22;8239;48.594;8.598;2022-09-29T11:16:28;18.30;66.50
16263;DHT22;8239;48.594;8.598;2022-09-29T11:19:00;18.60;66.80
16263;DHT22;8239;48.594;8.598;2022-09-29T11:27:48;18.60;62.10
16263;DHT22;8239;48.594;8.598;2022-09-29T11:30:22;18.50;62.70
16263;DHT22;8239;48.594;8.598;2022-09-29T11:33:00;18.30;62.20
16263;DHT22;8239;48.594;8.598;2022-09-29T11:35:49;18.00;62.30
16263;DHT22;8239;48.594;8.598;2022-09-29T11:38:43;17.70;63.30
16263;DHT22;8239;48.594;8.598;2022-09-29T11:41:24;17.20;63.70
16263;DHT22;8239;48.594;8.598;2022-09-29T11:43:59;16.60;65.10
16263;DHT22;8239;48.594;8.598;2022-09-29T11:46:55;16.20;66.70
16263;DHT22;8239;48.594;8.598;2022-09-29T11:49:41;15.70;67.90
16263;DHT22;8239;48.594;8.598;2022-09-29T11:52:26;15.40;69.50
16263;DHT22;8239;48.594;8.598;2022-09-29T11:55:25;15.10;70.00
16263;DHT22;8239;48.594;8.598;2022-09-29T11:58:01;14.80;71.30
16263;DHT22;8239;48.594;8.598;2022-09-29T12:00:47;14.70;71.80
16263;DHT22;8239;48.594;8.598;2022-09-29T12:03:26;14.70;72.40
16263;DHT22;8239;48.594;8.598;2022-09-29T12:06:08;14.90;72.80
16263;DHT22;8239;48.594;8.598;2022-09-29T12:08:53;15.10;72.80
16263;DHT22;8239;48.594;8.598;2022-09-29T12:11:28;15.40;71.80
16263;DHT22;8239;48.594;8.598;2022-09-29T12:14:04;15.50;71.20
16263;DHT22;8239;48.594;8.598;2022-09-29T12:16:40;15.60;71.90
16263;DHT22;8239;48.594;8.598;2022-09-29T12:19:11;15.90;71.60
16263;DHT22;8239;48.594;8.598;2022-09-29T12:21:42;16.20;71.20
16263;DHT22;8239;48.594;8.598;2022-09-29T12:24:16;16.50;70.40
16263;DHT22;8239;48.594;8.598;2022-09-29T12:26:46;16.60;68.70
16263;DHT22;8239;48.594;8.598;2022-09-29T12:29:21;16.80;69.00
16263;DHT22;8239;48.594;8.598;2022-09-29T12:31:54;16.90;68.10
16263;DHT22;8239;48.594;8.598;2022-09-29T12:34:31;16.80;66.80
16263;DHT22;8239;48.594;8.598;2022-09-29T12:37:02;16.80;66.60
16263;DHT22;8239;48.594;8.598;2022-09-29T12:39:38;16.70;65.90
16263;DHT22;8239;48.594;8.598;2022-09-29T12:42:21;16.70;66.40
16263;DHT22;8239;48.594;8.598;2022-09-29T12:44:54;16.60;66.70
16263;DHT22;8239;48.594;8.598;2022-09-29T12:47:32;16.40;66.50
16263;DHT22;8239;48.594;8.598;2022-09-29T12:50:10;16.10;65.80
16263;DHT22;8239;48.594;8.598;2022-09-29T12:52:45;16.10;67.60
16263;DHT22;8239;48.594;8.598;2022-09-29T12:55:18;16.10;67.90
16263;DHT22;8239;48.594;8.598;2022-09-29T12:57:52;16.30;67.90
16263;DHT22;8239;48.594;8.598;2022-09-29T13:00:20;16.40;67.90
16263;DHT22;8239;48.594;8.598;2022-09-29T13:03:21;16.50;67.80
16263;DHT22;8239;48.594;8.598;2022-09-29T13:12:19;16.50;66.50
16263;DHT22;8239;48.594;8.598;2022-09-29T13:15:34;16.50;66.50
16263;DHT22;8239;48.594;8.598;2022-09-29T13:18:21;16.50;66.60
16263;DHT22;8239;48.594;8.598;2022-09-29T13:21:05;16.50;67.20
16263;DHT22;8239;48.594;8.598;2022-09-29T13:24:11;16.30;67.80
16263;DHT22;8239;48.594;8.598;2022-09-29T13:27:06;16.20;68.30
16263;DHT22;8239;48.594;8.598;2022-09-29T13:29:42;16.10;69.10
16263;DHT22;8239;48.594;8.598;2022-09-29T13:32:11;16.10;69.40
16263;DHT22;8239;48.594;8.598;2022-09-29T13:34:42;16.20;69.30
16263;DHT22;8239;48.594;8.598;2022-09-29T13:37:14;16.30;69.80
16263;DHT22;8239;48.594;8.598;2022-09-29T13:39:53;16.50;70.00
16263;DHT22;8239;48.594;8.598;2022-09-29T13:42:31;16.40;67.60
16263;DHT22;8239;48.594;8.598;2022-09-29T13:45:40;16.30;68.40
16263;DHT22;8239;48.594;8.598;2022-09-29T13:48:41;16.10;67.40
16263;DHT22;8239;48.594;8.598;2022-09-29T13:51:48;15.40;67.50
16263;DHT22;8239;48.594;8.598;2022-09-29T13:54:36;15.10;68.80
16263;DHT22;8239;48.594;8.598;2022-09-29T13:57:29;15.00;69.80
16263;DHT22;8239;48.594;8.598;2022-09-29T14:00:16;14.90;71.60
16263;DHT22;8239;48.594;8.598;2022-09-29T14:02:48;15.00;72.10
16263;DHT22;8239;48.594;8.598;2022-09-29T14:05:54;15.10;72.00
16263;DHT22;8239;48.594;8.598;2022-09-29T14:08:26;15.20;72.00
16263;DHT22;8239;48.594;8.598;2022-09-29T14:11:01;15.20;71.50
16263;DHT22;8239;48.594;8.598;2022-09-29T14:13:38;15.10;72.00
16263;DHT22;8239;48.594;8.598;2022-09-29T14:16:27;15.00;71.60
16263;DHT22;8239;48.594;8.598;2022-09-29T14:19:01;15.00;71.40
16263;DHT22;8239;48.594;8.598;2022-09-29T14:21:48;14.80;71.20
16263;DHT22;8239;48.594;8.598;2022-09-29T14:24:41;14.60;71.70
16263;DHT22;8239;48.594;8.598;2022-09-29T14:27:28;14.30;71.50
16263;DHT22;8239;48.594;8.598;2022-09-29T14:30:11;14.10;73.10
16263;DHT22;8239;48.594;8.598;2022-09-29T14:32:44;13.90;74.00
16263;DHT22;8239;48.594;8.598;2022-09-29T14:35:17;13.80;73.60
16263;DHT22;8239;48.594;8.598;2022-09-29T14:37:58;13.70;74.20
16263;DHT22;8239;48.594;8.598;2022-09-29T14:40:27;13.60;74.90
16263;DHT22;8239;48.594;8.598;2022-09-29T14:43:12;13.60;75.40
16263;DHT22;8239;48.594;8.598;2022-09-29T14:49:08;13.60;76.50
16263;DHT22;8239;48.594;8.598;2022-09-29T14:52:03;13.60;76.60
16263;DHT22;8239;48.594;8.598;2022-09-29T14:54:42;13.80;76.50
16263;DHT22;8239;48.594;8.598;2022-09-29T15:00:11;14.00;75.20
16263;DHT22;8239;48.594;8.598;2022-09-29T15:02:44;14.20;74.80
16263;DHT22;8239;48.594;8.598;2022-09-29T15:05:14;14.10;73.10
16263;DHT22;8239;48.594;8.598;2022-09-29T15:07:49;14.10;74.20
16263;DHT22;8239;48.594;8.598;2022-09-29T15:10:21;14.10;73.90
16263;DHT22;8239;48.594;8.598;2022-09-29T15:12:50;13.90;74.40
16263;DHT22;8239;48.594;8.598;2022-09-29T15:15:31;13.70;75.10
16263;DHT22;8239;48.594;8.598;2022-09-29T15:18:09;13.70;77.50
16263;DHT22;8239;48.594;8.598;2022-09-29T15:20:53;13.60;77.30
16263;DHT22;8239;48.594;8.598;2022-09-29T15:23:39;13.50;77.70
16263;DHT22;8239;48.594;8.598;2022-09-29T15:26:12;13.40;77.90
16263;DHT22;8239;48.594;8.598;2022-09-29T15:28:40;13.30;77.70
16263;DHT22;8239;48.594;8.598;2022-09-29T15:31:10;13.30;78.10
16263;DHT22;8239;48.594;8.598;2022-09-29T15:33:42;13.30;78.50
16263;DHT22;8239;48.594;8.598;2022-09-29T15:36:17;13.30;78.50
16263;DHT22;8239;48.594;8.598;2022-09-29T15:38:45;13.20;78.20
16263;DHT22;8239;48.594;8.598;2022-09-29T15:41:15;13.10;78.70
16263;DHT22;8239;48.594;8.598;2022-09-29T15:43:50;12.90;79.20
16263;DHT22;8239;48.594;8.598;2022-09-29T15:46:20;12.80;79.50
16263;DHT22;8239;48.594;8.598;2022-09-29T15:49:12;12.70;80.00
16263;DHT22;8239;48.594;8.598;2022-09-29T15:51:40;12.60;80.50
16263;DHT22;8239;48.594;8.598;2022-09-29T15:54:10;12.60;81.00
16263;DHT22;8239;48.594;8.598;2022-09-29T15:56:39;12.50;81.60
16263;DHT22;8239;48.594;8.598;2022-09-29T15:59:38;12.40;82.20
16263;DHT22;8239;48.594;8.598;2022-09-29T16:02:14;12.40;83.00
16263;DHT22;8239;48.594;8.598;2022-09-29T16:04:46;12.40;83.70
16263;DHT22;8239;48.594;8.598;2022-09-29T16:07:21;12.30;84.10
16263;DHT22;8239;48.594;8.598;2022-09-29T16:09:49;12.30;84.50
16263;DHT22;8239;48.594;8.598;2022-09-29T16:12:19;12.30;84.80
16263;DHT22;8239;48.594;8.598;2022-09-29T16:14:47;12.20;84.90
16263;DHT22;8239;48.594;8.598;2022-09-29T16:17:19;12.20;84.90
16263;DHT22;8239;48.594;8.598;2022-09-29T16:19:48;12.10;85.10
16263;DHT22;8239;48.594;8.598;2022-09-29T16:22:19;12.00;85.40
16263;DHT22;8239;48.594;8.598;2022-09-29T16:24:53;12.00;86.00
16263;DHT22;8239;48.594;8.598;2022-09-29T16:27:45;11.90;86.20
16263;DHT22;8239;48.594;8.598;2022-09-29T16:30:21;11.90;86.70
16263;DHT22;8239;48.594;8.598;2022-09-29T16:33:08;11.80;87.10
16263;DHT22;8239;48.594;8.598;2022-09-29T16:35:45;11.70;87.50
16263;DHT22;8239;48.594;8.598;2022-09-29T16:38:31;11.50;88.00
16263;DHT22;8239;48.594;8.598;2022-09-29T16:41:07;11.30;88.60
16263;DHT22;8239;48.594;8.598;2022-09-29T16:43:36;11.20;89.40
16263;DHT22;8239;48.594;8.598;2022-09-29T16:46:08;11.00;90.10
16263;DHT22;8239;48.594;8.598;2022-09-29T16:48:40;10.80;90.50
16263;DHT22;8239;48.594;8.598;2022-09-29T16:51:14;10.60;91.00
16263;DHT22;8239;48.594;8.598;2022-09-29T16:53:42;10.50;91.60
16263;DHT22;8239;48.594;8.598;2022-09-29T16:56:16;10.30;92.20
16263;DHT22;8239;48.594;8.598;2022-09-29T16:58:45;10.10;92.70
16263;DHT22;8239;48.594;8.598;2022-09-29T17:01:28;10.00;93.50
16263;DHT22;8239;48.594;8.598;2022-09-29T17:03:55;9.80;94.80